Time;durP1;ratioP1;P1;durP2;ratioP2;P2;SDS_P1;SDS_P2;PMS_P1;PMS_P2;Temp;Humidity;BMP_temperature;BMP_pressure;BME280_temperature;BME280_humidity;BME280_pressure;Samples;Min_cycle;Max_cycle;Signal;HPM_P1;HPM_P2
2021/11/04 00:01:17;;;;;;;60.80;27.53;;;;;;;;;;5014517;28;20417;-51
2021/11/04 00:03:43;;;;;;;57.10;27.03;;;;;;;;;;5014487;28;20413;-51
2021/11/04 00:06:09;;;;;;;62.23;28.93;;;;;;;;;;5014243;28;20456;-51
2021/11/04 00:08:36;;;;;;;58.77;28.80;;;;;;;;;;5013980;28;20516;-50
2021/11/04 00:11:02;;;;;;;56.70;27.87;;;;;;;;;;5014344;28;20459;-50
2021/11/04 00:13:27;;;;;;;61.90;28.20;;;;;;;;;;5014293;28;20404;-52
2021/11/04 00:15:53;;;;;;;58.67;27.50;;;;;;;;;;5014008;28;20456;-50
2021/11/04 00:18:20;;;;;;;65.93;28.40;;;;;;;;;;5013898;28;20435;-50
2021/11/04 00:20:46;;;;;;;66.63;30.50;;;;;;;;;;5014141;28;20438;-50
2021/11/04 00:23:12;;;;;;;58.20;28.37;;;;;;;;;;5014016;28;20440;-51
2021/11/04 00:25:38;;;;;;;75.27;29.67;;;;;;;;;;5013934;28;20488;-51
2021/11/04 00:28:04;;;;;;;63.23;27.47;;;;;;;;;;5013381;28;20424;-51
2021/11/04 00:30:30;;;;;;;59.40;26.10;;;;;;;;;;5014006;28;20884;-51
2021/11/04 00:32:56;;;;;;;70.87;29.47;;;;;;;;;;5013958;28;20723;-50
2021/11/04 00:35:23;;;;;;;59.87;26.87;;;;;;;;;;5013805;28;20426;-51
2021/11/04 00:37:49;;;;;;;70.47;29.50;;;;;;;;;;5013475;28;20496;-51
2021/11/04 00:40:16;;;;;;;72.73;29.87;;;;;;;;;;5013800;28;20462;-51
2021/11/04 00:42:42;;;;;;;66.37;28.17;;;;;;;;;;5013744;28;20469;-51
2021/11/04 00:45:09;;;;;;;72.97;30.30;;;;;;;;;;5013563;28;20947;-51
2021/11/04 00:47:35;;;;;;;69.47;29.10;;;;;;;;;;5013345;28;20401;-52
2021/11/04 00:50:01;;;;;;;63.87;27.83;;;;;;;;;;5013628;28;20404;-51
2021/11/04 00:52:27;;;;;;;64.50;28.17;;;;;;;;;;5013525;28;20395;-50
2021/11/04 00:54:53;;;;;;;63.23;27.47;;;;;;;;;;5013447;28;20787;-51
2021/11/04 00:57:19;;;;;;;60.40;28.20;;;;;;;;;;5013357;28;20395;-50
2021/11/04 00:59:45;;;;;;;64.97;28.63;;;;;;;;;;5013258;28;20405;-50
2021/11/04 01:02:11;;;;;;;61.70;28.13;;;;;;;;;;5013431;28;20414;-50
2021/11/04 01:04:37;;;;;;;57.20;26.83;;;;;;;;;;5013222;28;20421;-51
2021/11/04 01:10:07;;;;;;;61.60;26.20;;;;;;;;;;5013216;28;20410;-51
2021/11/04 01:12:33;;;;;;;52.83;28.77;;;;;;;;;;5013205;28;20990;-51
2021/11/04 01:15:00;;;;;;;59.17;28.20;;;;;;;;;;5012860;28;20473;-51
2021/11/04 01:17:25;;;;;;;64.63;29.13;;;;;;;;;;5012872;28;20490;-50
2021/11/04 01:19:51;;;;;;;55.17;26.60;;;;;;;;;;5013080;28;20395;-50
2021/11/04 01:22:20;;;;;;;61.20;29.07;;;;;;;;;;5013078;28;20437;-50
2021/11/04 01:24:46;;;;;;;55.67;26.37;;;;;;;;;;5012893;28;20424;-51
2021/11/04 01:27:11;;;;;;;59.77;26.40;;;;;;;;;;5012909;28;20896;-51
2021/11/04 01:29:37;;;;;;;55.60;28.83;;;;;;;;;;5012726;28;20405;-50
2021/11/04 01:32:04;;;;;;;65.03;27.77;;;;;;;;;;5012855;28;20560;-51
2021/11/04 01:34:30;;;;;;;70.83;29.97;;;;;;;;;;5012818;28;20915;-51
2021/11/04 01:36:56;;;;;;;60.60;29.20;;;;;;;;;;5012728;28;20435;-51
2021/11/04 01:39:22;;;;;;;64.10;30.33;;;;;;;;;;5011871;28;20414;-51
2021/11/04 01:41:48;;;;;;;62.87;27.27;;;;;;;;;;5012586;28;20415;-50
2021/11/04 01:44:14;;;;;;;62.63;27.40;;;;;;;;;;5012576;28;20447;-50
2021/11/04 01:46:40;;;;;;;62.03;28.20;;;;;;;;;;5012855;28;20514;-51
2021/11/04 01:49:06;;;;;;;71.93;28.53;;;;;;;;;;5012524;28;20396;-50
2021/11/04 01:51:32;;;;;;;63.07;26.90;;;;;;;;;;5012554;28;20426;-51
2021/11/04 01:53:58;;;;;;;60.80;27.77;;;;;;;;;;5012435;28;20411;-51
2021/11/04 01:56:25;;;;;;;63.07;27.87;;;;;;;;;;5012250;28;20429;-50
2021/11/04 01:58:51;;;;;;;64.27;27.40;;;;;;;;;;5012177;28;20422;-51
2021/11/04 02:01:17;;;;;;;64.20;26.83;;;;;;;;;;5012138;28;20407;-51
2021/11/04 02:03:52;;;;;;;57.53;27.20;;;;;;;;;;5011755;28;20850;-51
2021/11/04 02:06:29;;;;;;;67.80;31.40;;;;;;;;;;5011902;28;20470;-51
2021/11/04 02:08:59;;;;;;;66.07;29.43;;;;;;;;;;5011839;28;20899;-51
2021/11/04 02:11:29;;;;;;;68.20;30.17;;;;;;;;;;5012291;28;20891;-51
2021/11/04 02:13:58;;;;;;;58.37;28.67;;;;;;;;;;5012067;28;20393;-50
2021/11/04 02:16:25;;;;;;;65.83;27.97;;;;;;;;;;5011957;28;20450;-50
2021/11/04 02:18:52;;;;;;;57.90;26.37;;;;;;;;;;5011877;28;20414;-50
2021/11/04 02:21:37;;;;;;;63.23;25.73;;;;;;;;;;5012124;28;20406;-50
2021/11/04 02:24:11;;;;;;;72.40;29.20;;;;;;;;;;5012247;28;20412;-50
2021/11/04 02:26:37;;;;;;;67.10;27.77;;;;;;;;;;5012105;28;20815;-50
2021/11/04 02:29:04;;;;;;;58.70;26.67;;;;;;;;;;5011749;28;20453;-51
2021/11/04 02:31:30;;;;;;;65.80;28.37;;;;;;;;;;5012127;28;20895;-51
2021/11/04 02:33:56;;;;;;;66.63;29.27;;;;;;;;;;5012002;28;20409;-51
2021/11/04 02:36:24;;;;;;;56.30;26.80;;;;;;;;;;5011869;28;20417;-50
2021/11/04 02:38:51;;;;;;;58.23;27.63;;;;;;;;;;5011722;28;20779;-51
2021/11/04 02:41:19;;;;;;;63.07;28.57;;;;;;;;;;5011945;28;20403;-50
2021/11/04 02:43:45;;;;;;;65.77;26.70;;;;;;;;;;5011858;28;20411;-50
2021/11/04 02:46:12;;;;;;;69.07;29.23;;;;;;;;;;5011708;28;20459;-50
2021/11/04 02:48:39;;;;;;;62.77;29.47;;;;;;;;;;5011578;28;20539;-50
2021/11/04 02:51:05;;;;;;;71.27;30.10;;;;;;;;;;5013747;28;20458;-51
2021/11/04 02:53:31;;;;;;;72.37;30.10;;;;;;;;;;5015806;28;20392;-51
2021/11/04 02:55:58;;;;;;;67.50;28.87;;;;;;;;;;5016032;28;20421;-52
2021/11/04 02:58:24;;;;;;;58.20;26.90;;;;;;;;;;5015500;28;20457;-52
2021/11/04 03:00:53;;;;;;;60.47;29.03;;;;;;;;;;5015574;28;20922;-51
2021/11/04 03:03:19;;;;;;;67.70;30.10;;;;;;;;;;5015669;28;20420;-51
2021/11/04 03:05:45;;;;;;;63.40;28.60;;;;;;;;;;5015474;28;21015;-50
2021/11/04 03:08:12;;;;;;;66.50;29.80;;;;;;;;;;5015440;28;20519;-50
2021/11/04 03:10:38;;;;;;;66.83;28.10;;;;;;;;;;5015549;28;20396;-50
2021/11/04 03:13:04;;;;;;;61.10;28.57;;;;;;;;;;5015357;28;20412;-51
2021/11/04 03:15:33;;;;;;;72.27;29.80;;;;;;;;;;5015103;28;20543;-50
2021/11/04 03:18:00;;;;;;;64.20;26.47;;;;;;;;;;5015038;28;20439;-51
2021/11/04 03:20:26;;;;;;;66.70;29.90;;;;;;;;;;5015360;28;20411;-50
2021/11/04 03:22:53;;;;;;;71.33;31.10;;;;;;;;;;5015339;28;20401;-50
2021/11/04 03:25:20;;;;;;;65.80;29.20;;;;;;;;;;5015088;28;20494;-50
2021/11/04 03:27:48;;;;;;;71.87;30.53;;;;;;;;;;5014864;28;20409;-51
2021/11/04 03:30:16;;;;;;;68.73;30.70;;;;;;;;;;5015493;28;20482;-50
2021/11/04 03:32:43;;;;;;;66.73;28.67;;;;;;;;;;5015094;28;20415;-50
2021/11/04 03:35:10;;;;;;;65.87;29.20;;;;;;;;;;5014931;28;20423;-50
2021/11/04 03:37:37;;;;;;;70.07;30.00;;;;;;;;;;5014733;28;20412;-50
2021/11/04 03:40:04;;;;;;;64.77;28.70;;;;;;;;;;5014945;28;20950;-50
2021/11/04 03:42:30;;;;;;;63.30;28.17;;;;;;;;;;5014861;28;20416;-51
2021/11/04 03:44:56;;;;;;;68.23;29.77;;;;;;;;;;5014639;28;20423;-50
2021/11/04 03:47:23;;;;;;;69.65;28.67;;;;;;;;;;5014622;28;20453;-50
2021/11/04 03:49:50;;;;;;;62.40;29.43;;;;;;;;;;5014831;28;20452;-50
2021/11/04 03:52:17;;;;;;;61.13;27.03;;;;;;;;;;5014734;28;20821;-51
2021/11/04 03:54:44;;;;;;;61.77;28.33;;;;;;;;;;5014629;28;21050;-50
2021/11/04 03:57:10;;;;;;;78.70;30.37;;;;;;;;;;5014381;28;20403;-50
2021/11/04 03:59:36;;;;;;;72.80;31.23;;;;;;;;;;5014364;28;20426;-51
2021/11/04 04:02:02;;;;;;;60.73;29.60;;;;;;;;;;5013883;28;20904;-50
2021/11/04 04:04:27;;;;;;;65.93;29.37;;;;;;;;;;5014457;28;20881;-50
2021/11/04 04:06:54;;;;;;;77.47;31.50;;;;;;;;;;5014325;28;20519;-50
2021/11/04 04:09:22;;;;;;;79.63;32.27;;;;;;;;;;5014146;28;20407;-50
2021/11/04 04:11:48;;;;;;;69.63;30.70;;;;;;;;;;5014205;28;20459;-50
2021/11/04 04:14:14;;;;;;;72.40;28.40;;;;;;;;;;5014164;28;20411;-50
2021/11/04 04:16:40;;;;;;;66.43;29.20;;;;;;;;;;5012918;28;20432;-51
2021/11/04 04:19:06;;;;;;;64.70;29.33;;;;;;;;;;5014110;28;20411;-50
2021/11/04 04:21:32;;;;;;;73.53;30.10;;;;;;;;;;5014325;28;20412;-50
2021/11/04 04:23:58;;;;;;;73.53;27.83;;;;;;;;;;5014100;28;20407;-50
2021/11/04 04:26:23;;;;;;;67.50;28.80;;;;;;;;;;5013735;28;20448;-50
2021/11/04 04:28:49;;;;;;;75.77;29.70;;;;;;;;;;5013822;28;20840;-50
2021/11/04 04:31:15;;;;;;;77.17;32.83;;;;;;;;;;5013951;28;20404;-50
2021/11/04 04:33:42;;;;;;;82.25;32.03;;;;;;;;;;5014037;28;20951;-51
2021/11/04 04:36:08;;;;;;;74.50;29.42;;;;;;;;;;5013851;28;20198;-50
2021/11/04 04:38:35;;;;;;;91.53;33.30;;;;;;;;;;5013617;28;20223;-50
2021/11/04 04:41:01;;;;;;;91.83;31.57;;;;;;;;;;5013650;28;20399;-51
2021/11/04 04:43:27;;;;;;;101.97;36.30;;;;;;;;;;5013779;28;20400;-50
2021/11/04 04:45:53;;;;;;;96.70;33.77;;;;;;;;;;5013597;28;20460;-51
2021/11/04 04:48:19;;;;;;;100.33;33.70;;;;;;;;;;5013327;28;20750;-51
2021/11/04 04:50:45;;;;;;;91.30;35.43;;;;;;;;;;5013638;28;20482;-50
2021/11/04 04:53:11;;;;;;;94.60;34.17;;;;;;;;;;5013587;28;20403;-51
2021/11/04 04:55:37;;;;;;;92.67;35.00;;;;;;;;;;5013322;28;20988;-51
2021/11/04 04:58:03;;;;;;;91.17;33.97;;;;;;;;;;5013175;28;20462;-51
2021/11/04 05:00:29;;;;;;;94.20;34.83;;;;;;;;;;5013543;28;20403;-50
2021/11/04 05:02:55;;;;;;;96.47;37.67;;;;;;;;;;5013432;28;20435;-50
2021/11/04 05:05:21;;;;;;;90.37;35.80;;;;;;;;;;5013226;28;21025;-51
2021/11/04 05:07:48;;;;;;;91.50;34.10;;;;;;;;;;5013009;28;20549;-51
2021/11/04 05:10:14;;;;;;;105.03;34.90;;;;;;;;;;5013082;28;20896;-50
2021/11/04 05:12:42;;;;;;;95.20;36.20;;;;;;;;;;5013188;28;20247;-52
2021/11/04 05:15:08;;;;;;;88.07;35.63;;;;;;;;;;5013327;28;20519;-52
2021/11/04 05:17:34;;;;;;;90.17;34.00;;;;;;;;;;5015927;28;20922;-51
2021/11/04 05:20:01;;;;;;;91.43;34.33;;;;;;;;;;5016831;28;20396;-52
2021/11/04 05:22:27;;;;;;;98.73;36.57;;;;;;;;;;5016899;28;20408;-51
2021/11/04 05:24:53;;;;;;;85.50;33.60;;;;;;;;;;5015879;28;20477;-51
2021/11/04 05:27:19;;;;;;;86.47;35.00;;;;;;;;;;5015539;28;20403;-51
2021/11/04 05:29:45;;;;;;;90.83;37.93;;;;;;;;;;5016179;28;20404;-51
2021/11/04 05:32:11;;;;;;;112.10;37.27;;;;;;;;;;5015751;28;20403;-51
2021/11/04 05:34:37;;;;;;;90.57;34.47;;;;;;;;;;5014042;28;20900;-51
2021/11/04 05:37:04;;;;;;;99.90;36.10;;;;;;;;;;5014379;28;20478;-51
2021/11/04 05:39:30;;;;;;;88.83;33.07;;;;;;;;;;5015653;28;20192;-51
2021/11/04 05:41:56;;;;;;;93.10;36.60;;;;;;;;;;5015452;28;20400;-51
2021/11/04 05:44:22;;;;;;;93.57;35.80;;;;;;;;;;5014368;28;20659;-52
2021/11/04 05:46:48;;;;;;;94.87;37.73;;;;;;;;;;5014831;28;20902;-53
2021/11/04 05:49:13;;;;;;;96.00;36.70;;;;;;;;;;5015253;28;20404;-51
2021/11/04 05:51:39;;;;;;;93.60;35.27;;;;;;;;;;5015468;28;20495;-52
2021/11/04 05:54:05;;;;;;;98.43;36.43;;;;;;;;;;5015211;28;20430;-51
2021/11/04 05:56:31;;;;;;;77.53;34.37;;;;;;;;;;5014834;28;20409;-51
2021/11/04 05:58:57;;;;;;;96.37;37.87;;;;;;;;;;5013375;28;20453;-50
2021/11/04 06:01:28;;;;;;;108.13;33.00;;;;;;;;;;5012367;28;20408;-50
2021/11/04 06:03:54;;;;;;;93.63;34.97;;;;;;;;;;5012422;28;20400;-50
2021/11/04 06:06:20;;;;;;;91.67;35.67;;;;;;;;;;5012026;28;20986;-51
2021/11/04 06:08:46;;;;;;;90.33;33.80;;;;;;;;;;5012035;28;20396;-50
2021/11/04 06:11:12;;;;;;;88.90;34.27;;;;;;;;;;5012261;28;20514;-50
2021/11/04 06:13:38;;;;;;;87.27;33.33;;;;;;;;;;5012222;28;20396;-50
2021/11/04 06:16:12;;;;;;;81.60;33.93;;;;;;;;;;5011991;28;20582;-51
2021/11/04 06:18:38;;;;;;;89.20;34.43;;;;;;;;;;5011994;28;20490;-50
2021/11/04 06:21:03;;;;;;;101.60;38.27;;;;;;;;;;5012021;28;20444;-51
2021/11/04 06:23:29;;;;;;;89.63;35.07;;;;;;;;;;5012018;28;20407;-51
2021/11/04 06:25:55;;;;;;;83.00;33.23;;;;;;;;;;5011753;28;21014;-50
2021/11/04 06:28:21;;;;;;;89.33;35.90;;;;;;;;;;5011773;28;20494;-51
2021/11/04 06:30:47;;;;;;;87.80;33.10;;;;;;;;;;5012020;28;20454;-50
2021/11/04 06:33:13;;;;;;;100.70;36.00;;;;;;;;;;5012010;28;20905;-50
2021/11/04 06:35:39;;;;;;;96.90;35.60;;;;;;;;;;5011878;28;20489;-50
2021/11/04 06:38:06;;;;;;;96.80;36.73;;;;;;;;;;5011586;28;20407;-50
2021/11/04 06:40:32;;;;;;;108.10;38.90;;;;;;;;;;5011963;28;20435;-50
2021/11/04 06:42:58;;;;;;;106.60;37.73;;;;;;;;;;5011983;28;20828;-50
2021/11/04 06:45:24;;;;;;;96.77;35.20;;;;;;;;;;5011780;28;20552;-50
2021/11/04 06:47:53;;;;;;;96.10;36.17;;;;;;;;;;5011665;28;20404;-50
2021/11/04 06:50:20;;;;;;;114.17;37.90;;;;;;;;;;5011842;28;20435;-50
2021/11/04 06:53:06;;;;;;;104.15;35.90;;;;;;;;;;5011880;28;20461;-50
2021/11/04 06:55:33;;;;;;;111.83;37.37;;;;;;;;;;5011860;28;20264;-50
2021/11/04 06:58:03;;;;;;;104.77;38.20;;;;;;;;;;5011589;28;20427;-50
2021/11/04 07:00:30;;;;;;;90.70;37.13;;;;;;;;;;5011773;28;20404;-51
2021/11/04 07:02:59;;;;;;;96.83;37.47;;;;;;;;;;5011761;28;20430;-50
2021/11/04 07:05:25;;;;;;;97.70;37.47;;;;;;;;;;5011539;28;20443;-51
2021/11/04 07:07:53;;;;;;;97.43;39.53;;;;;;;;;;5010830;28;20435;-50
2021/11/04 07:10:20;;;;;;;98.90;37.87;;;;;;;;;;5011183;28;20407;-50
2021/11/04 07:12:48;;;;;;;94.70;39.17;;;;;;;;;;5010899;28;20477;-50
2021/11/04 07:15:15;;;;;;;88.50;37.80;;;;;;;;;;5010830;28;20535;-50
2021/11/04 07:17:42;;;;;;;94.80;37.47;;;;;;;;;;5010605;28;20404;-51
2021/11/04 07:20:08;;;;;;;101.43;38.57;;;;;;;;;;5011567;28;20412;-50
2021/11/04 07:22:37;;;;;;;90.00;39.47;;;;;;;;;;5011519;28;20796;-50
2021/11/04 07:25:05;;;;;;;79.97;34.73;;;;;;;;;;5011823;28;20466;-51
2021/11/04 07:27:31;;;;;;;98.03;38.10;;;;;;;;;;5011075;28;20495;-50
2021/11/04 07:29:58;;;;;;;85.30;34.27;;;;;;;;;;5011550;28;20845;-51
2021/11/04 07:32:25;;;;;;;85.47;33.50;;;;;;;;;;5011420;28;20396;-51
2021/11/04 07:34:51;;;;;;;90.13;34.27;;;;;;;;;;5011382;28;20428;-50
2021/11/04 07:37:17;;;;;;;79.37;31.70;;;;;;;;;;5011804;28;20470;-51
2021/11/04 07:39:44;;;;;;;98.30;35.90;;;;;;;;;;5014800;28;20411;-51
2021/11/04 07:42:10;;;;;;;106.93;38.07;;;;;;;;;;5014867;28;20408;-50
2021/11/04 07:44:36;;;;;;;88.67;35.30;;;;;;;;;;5014855;28;20499;-50
2021/11/04 07:47:04;;;;;;;89.30;35.23;;;;;;;;;;5014692;28;20456;-51
2021/11/04 07:49:30;;;;;;;78.83;33.40;;;;;;;;;;5014532;28;20431;-50
2021/11/04 07:52:00;;;;;;;83.90;34.30;;;;;;;;;;5014736;28;20960;-50
2021/11/04 07:54:26;;;;;;;84.57;33.80;;;;;;;;;;5014704;28;20428;-50
2021/11/04 07:56:52;;;;;;;93.03;34.23;;;;;;;;;;5014499;28;20436;-50
2021/11/04 07:59:18;;;;;;;73.20;32.90;;;;;;;;;;5014466;28;20447;-51
2021/11/04 08:01:44;;;;;;;77.00;34.30;;;;;;;;;;5014588;28;20419;-50
2021/11/04 08:04:10;;;;;;;74.57;31.97;;;;;;;;;;5014436;28;20605;-50
2021/11/04 08:06:36;;;;;;;79.10;31.67;;;;;;;;;;5014286;28;20788;-51
2021/11/04 08:09:03;;;;;;;78.53;31.60;;;;;;;;;;5014124;28;20409;-51
2021/11/04 08:11:29;;;;;;;78.10;31.13;;;;;;;;;;5014344;28;20408;-51
2021/11/04 08:13:55;;;;;;;73.37;27.90;;;;;;;;;;5014477;28;20408;-50
2021/11/04 08:16:21;;;;;;;67.20;28.20;;;;;;;;;;5014103;28;20450;-50
2021/11/04 08:18:47;;;;;;;75.33;28.73;;;;;;;;;;5014144;28;20455;-51
2021/11/04 08:21:13;;;;;;;64.57;29.87;;;;;;;;;;5014191;28;20401;-51
2021/11/04 08:23:39;;;;;;;61.77;29.70;;;;;;;;;;5014219;28;20399;-51
2021/11/04 08:26:07;;;;;;;59.83;25.13;;;;;;;;;;5013897;28;20953;-52
2021/11/04 08:28:32;;;;;;;68.07;26.37;;;;;;;;;;5013843;28;20408;-51
2021/11/04 08:30:58;;;;;;;67.87;25.93;;;;;;;;;;5014139;28;20893;-51
2021/11/04 08:33:24;;;;;;;71.17;27.90;;;;;;;;;;5014076;28;20814;-51
2021/11/04 08:35:50;;;;;;;58.90;25.93;;;;;;;;;;5013885;28;20424;-51
2021/11/04 08:38:17;;;;;;;60.80;24.20;;;;;;;;;;5013628;28;20419;-51
2021/11/04 08:40:43;;;;;;;64.93;26.13;;;;;;;;;;5013830;28;20411;-51
2021/11/04 08:43:09;;;;;;;62.07;24.83;;;;;;;;;;5013903;28;20424;-50
2021/11/04 08:45:36;;;;;;;65.70;25.87;;;;;;;;;;5013711;28;20456;-51
2021/11/04 08:48:02;;;;;;;59.00;27.50;;;;;;;;;;5013199;28;20896;-51
2021/11/04 08:50:28;;;;;;;68.10;26.40;;;;;;;;;;5013620;28;20711;-51
2021/11/04 08:52:54;;;;;;;69.73;26.43;;;;;;;;;;5012283;28;20403;-50
2021/11/04 08:55:21;;;;;;;72.23;26.17;;;;;;;;;;5013298;28;21136;-50
2021/11/04 08:57:47;;;;;;;58.57;26.80;;;;;;;;;;5013243;28;20754;-51
2021/11/04 09:00:13;;;;;;;65.57;27.67;;;;;;;;;;5013369;28;20402;-51
2021/11/04 09:02:40;;;;;;;67.90;27.13;;;;;;;;;;5013285;28;20936;-50
2021/11/04 09:05:09;;;;;;;72.10;29.13;;;;;;;;;;5011757;28;20420;-51
2021/11/04 09:07:39;;;;;;;64.37;29.50;;;;;;;;;;5012863;28;20410;-50
2021/11/04 09:10:07;;;;;;;56.33;26.40;;;;;;;;;;5013212;28;20441;-51
2021/11/04 09:12:33;;;;;;;64.30;26.67;;;;;;;;;;5012990;28;20460;-50
2021/11/04 09:14:59;;;;;;;69.83;28.33;;;;;;;;;;5012757;28;20453;-51
2021/11/04 09:17:25;;;;;;;61.70;26.70;;;;;;;;;;5011575;28;20417;-50
2021/11/04 09:19:51;;;;;;;59.20;25.00;;;;;;;;;;5013096;28;20399;-50
2021/11/04 09:22:19;;;;;;;55.50;25.60;;;;;;;;;;5013106;28;20406;-50
2021/11/04 09:24:46;;;;;;;55.30;25.17;;;;;;;;;;5013070;28;20420;-51
2021/11/04 09:27:12;;;;;;;50.40;21.67;;;;;;;;;;5012872;28;20453;-51
2021/11/04 09:29:39;;;;;;;57.20;25.50;;;;;;;;;;5012619;28;20435;-51
2021/11/04 09:32:06;;;;;;;53.00;22.77;;;;;;;;;;5013132;28;20813;-50
2021/11/04 09:34:32;;;;;;;47.87;22.43;;;;;;;;;;5012385;28;20427;-51
2021/11/04 09:36:58;;;;;;;49.97;22.40;;;;;;;;;;5012399;28;20406;-51
2021/11/04 09:39:24;;;;;;;56.90;23.10;;;;;;;;;;5012632;28;20918;-51
2021/11/04 09:41:50;;;;;;;59.83;21.43;;;;;;;;;;5012182;28;20815;-50
2021/11/04 09:44:18;;;;;;;55.70;24.10;;;;;;;;;;5012354;28;20466;-50
2021/11/04 09:46:44;;;;;;;51.30;21.17;;;;;;;;;;5012820;28;20452;-50
2021/11/04 09:49:10;;;;;;;50.87;21.73;;;;;;;;;;5012335;28;20794;-50
2021/11/04 09:51:37;;;;;;;58.90;24.23;;;;;;;;;;5012593;28;20411;-50
2021/11/04 09:54:03;;;;;;;51.30;22.60;;;;;;;;;;5006522;28;20505;-51
2021/11/04 09:56:30;;;;;;;52.00;23.50;;;;;;;;;;5011041;28;20784;-50
2021/11/04 09:58:57;;;;;;;50.23;21.07;;;;;;;;;;5012553;28;20486;-51
2021/11/04 10:01:31;;;;;;;48.80;20.90;;;;;;;;;;5011840;28;20949;-51
2021/11/04 10:03:58;;;;;;;55.73;24.07;;;;;;;;;;5012314;28;20495;-51
2021/11/04 10:06:31;;;;;;;46.40;20.97;;;;;;;;;;5012049;28;20462;-51
2021/11/04 10:08:59;;;;;;;48.20;22.27;;;;;;;;;;5012262;28;20406;-50
2021/11/04 10:11:29;;;;;;;44.77;20.17;;;;;;;;;;5012248;28;20399;-50
2021/11/04 10:13:59;;;;;;;45.97;19.70;;;;;;;;;;5012325;28;20894;-50
2021/11/04 10:16:29;;;;;;;48.93;21.83;;;;;;;;;;5011894;28;20438;-51
2021/11/04 10:18:55;;;;;;;48.80;21.77;;;;;;;;;;5011863;28;20419;-51
2021/11/04 10:21:25;;;;;;;54.70;20.50;;;;;;;;;;5012176;28;20918;-51
2021/11/04 10:23:51;;;;;;;45.03;20.27;;;;;;;;;;5012141;28;20413;-51
2021/11/04 10:26:28;;;;;;;49.63;21.50;;;;;;;;;;5012022;28;20873;-50
2021/11/04 10:29:01;;;;;;;56.00;24.60;;;;;;;;;;5011782;28;20403;-50
2021/11/04 10:31:35;;;;;;;70.87;28.37;;;;;;;;;;5012007;28;20395;-51
2021/11/04 10:34:01;;;;;;;86.33;31.23;;;;;;;;;;5012138;28;20753;-51
2021/11/04 10:36:27;;;;;;;66.30;27.13;;;;;;;;;;5012239;28;20431;-51
2021/11/04 10:38:53;;;;;;;77.17;26.20;;;;;;;;;;5018818;28;20406;-51
2021/11/04 10:41:23;;;;;;;79.30;31.30;;;;;;;;;;5018733;28;20434;-51
2021/11/04 10:43:51;;;;;;;78.67;28.27;;;;;;;;;;5018588;28;20410;-52
2021/11/04 10:46:17;;;;;;;70.33;29.17;;;;;;;;;;5017851;28;20526;-51
2021/11/04 10:48:45;;;;;;;88.07;31.73;;;;;;;;;;5017314;28;20434;-51
2021/11/04 10:51:15;;;;;;;82.17;30.50;;;;;;;;;;5018483;28;20407;-52
2021/11/04 10:53:41;;;;;;;73.20;28.80;;;;;;;;;;5018977;28;20890;-51
2021/11/04 10:56:22;;;;;;;79.93;31.20;;;;;;;;;;5018122;28;20437;-51
2021/11/04 10:58:53;;;;;;;65.67;29.77;;;;;;;;;;5016221;28;20423;-52
2021/11/04 11:01:31;;;;;;;82.83;31.03;;;;;;;;;;5018035;28;20778;-51
2021/11/04 11:04:02;;;;;;;62.30;27.60;;;;;;;;;;5017607;28;20406;-50
2021/11/04 11:06:30;;;;;;;77.37;29.77;;;;;;;;;;5016539;28;20453;-52
2021/11/04 11:09:05;;;;;;;68.70;28.33;;;;;;;;;;5014934;28;20770;-51
2021/11/04 11:11:31;;;;;;;77.63;27.07;;;;;;;;;;5015418;28;20398;-51
2021/11/04 11:13:57;;;;;;;70.73;27.90;;;;;;;;;;5019387;28;20403;-52
2021/11/04 11:16:23;;;;;;;71.60;28.10;;;;;;;;;;5015622;28;20451;-50
2021/11/04 11:18:51;;;;;;;71.13;24.90;;;;;;;;;;5015081;28;20406;-48
2021/11/04 11:21:17;;;;;;;73.13;27.90;;;;;;;;;;5015246;28;20411;-50
2021/11/04 11:23:43;;;;;;;72.67;28.33;;;;;;;;;;5015431;28;20406;-49
2021/11/04 11:26:12;;;;;;;78.03;29.80;;;;;;;;;;5014926;28;20462;-49
2021/11/04 11:28:39;;;;;;;76.47;28.50;;;;;;;;;;5014896;28;20407;-49
2021/11/04 11:31:11;;;;;;;64.77;28.43;;;;;;;;;;5015102;28;20435;-49
2021/11/04 11:33:38;;;;;;;76.33;29.47;;;;;;;;;;5014991;28;20461;-49
2021/11/04 11:36:14;;;;;;;72.73;30.87;;;;;;;;;;5008189;28;20489;-51
2021/11/04 11:39:14;;;;;;;71.93;29.07;;;;;;;;;;5014619;28;20566;-50
2021/11/04 11:41:53;;;;;;;64.80;29.47;;;;;;;;;;5014983;28;20423;-49
2021/11/04 11:44:48;;;;;;;80.80;32.07;;;;;;;;;;5014739;28;20434;-50
2021/11/04 11:47:16;;;;;;;76.50;29.77;;;;;;;;;;5001761;28;20473;-49
2021/11/04 11:49:42;;;;;;;84.13;32.47;;;;;;;;;;5014636;28;20407;-50
2021/11/04 11:52:31;;;;;;;92.47;37.13;;;;;;;;;;5014643;28;20414;-50
2021/11/04 11:55:00;;;;;;;71.43;30.67;;;;;;;;;;5014536;28;20423;-49
2021/11/04 11:57:27;;;;;;;78.63;32.57;;;;;;;;;;5014213;28;20909;-49
2021/11/04 11:59:54;;;;;;;79.67;33.13;;;;;;;;;;5014625;28;20403;-49
2021/11/04 12:02:38;;;;;;;83.07;33.70;;;;;;;;;;5014514;28;20885;-50
2021/11/04 12:05:16;;;;;;;70.90;32.33;;;;;;;;;;5014087;28;20779;-49
2021/11/04 12:07:42;;;;;;;75.90;32.30;;;;;;;;;;5014127;28;20752;-49
2021/11/04 12:10:28;;;;;;;73.07;32.07;;;;;;;;;;5014351;28;20395;-49
2021/11/04 12:12:54;;;;;;;82.90;34.37;;;;;;;;;;5014181;28;20895;-50
2021/11/04 12:15:20;;;;;;;82.07;36.47;;;;;;;;;;5014008;28;20939;-49
2021/11/04 12:18:05;;;;;;;82.10;38.03;;;;;;;;;;5013942;28;20454;-49
2021/11/04 12:20:31;;;;;;;85.77;39.00;;;;;;;;;;5014216;28;20472;-52
2021/11/04 12:22:57;;;;;;;70.43;34.53;;;;;;;;;;5013401;28;20899;-49
2021/11/04 12:25:24;;;;;;;84.33;36.00;;;;;;;;;;5014040;28;20822;-49
2021/11/04 12:27:50;;;;;;;83.67;36.13;;;;;;;;;;5014058;28;20769;-49
2021/11/04 12:30:23;;;;;;;87.67;35.17;;;;;;;;;;5013991;28;20443;-49
2021/11/04 12:33:09;;;;;;;72.23;32.10;;;;;;;;;;5014020;28;20914;-50
2021/11/04 12:35:47;;;;;;;71.57;34.00;;;;;;;;;;5030921;28;20533;-49
2021/11/04 12:38:19;;;;;;;81.97;36.60;;;;;;;;;;5033179;28;20414;-50
2021/11/04 12:40:47;;;;;;;65.40;32.10;;;;;;;;;;5032852;28;20769;-49
2021/11/04 12:43:13;;;;;;;68.30;31.87;;;;;;;;;;5032680;28;20904;-50
2021/11/04 12:45:44;;;;;;;71.93;34.20;;;;;;;;;;5033315;28;20822;-49
2021/11/04 12:48:11;;;;;;;65.13;31.33;;;;;;;;;;5033308;28;20441;-49
2021/11/04 12:50:38;;;;;;;67.53;33.97;;;;;;;;;;5033049;28;20405;-50
2021/11/04 12:53:09;;;;;;;63.20;31.30;;;;;;;;;;5033459;28;20398;-49
2021/11/04 12:55:35;;;;;;;62.97;32.00;;;;;;;;;;5033272;28;20505;-49
2021/11/04 12:58:05;;;;;;;69.50;32.43;;;;;;;;;;5033032;28;20873;-49
2021/11/04 13:00:32;;;;;;;59.47;32.00;;;;;;;;;;5033166;28;20902;-49
2021/11/04 13:02:58;;;;;;;59.63;32.60;;;;;;;;;;5033012;28;20771;-49
2021/11/04 13:05:25;;;;;;;56.57;28.57;;;;;;;;;;5032945;28;20468;-50
2021/11/04 13:07:55;;;;;;;58.97;30.50;;;;;;;;;;5032797;28;20399;-50
2021/11/04 13:10:29;;;;;;;53.57;26.93;;;;;;;;;;5033099;28;20418;-49
2021/11/04 13:13:06;;;;;;;63.53;31.50;;;;;;;;;;5030415;28;20493;-51
2021/11/04 13:15:40;;;;;;;64.97;32.60;;;;;;;;;;5032414;28;20445;-49
2021/11/04 13:18:07;;;;;;;60.07;30.10;;;;;;;;;;5032539;28;20407;-52
2021/11/04 13:20:44;;;;;;;61.23;29.23;;;;;;;;;;5032554;28;20472;-51
2021/11/04 13:23:12;;;;;;;54.27;29.33;;;;;;;;;;5017055;28;20462;-51
2021/11/04 13:25:40;;;;;;;53.53;28.40;;;;;;;;;;5017668;28;20455;-52
2021/11/04 13:28:07;;;;;;;52.83;25.23;;;;;;;;;;5004422;28;20397;-51
2021/11/04 13:30:54;;;;;;;59.07;29.40;;;;;;;;;;4999407;28;20404;-51
2021/11/04 13:33:22;;;;;;;56.87;29.57;;;;;;;;;;4994956;28;20907;-51
2021/11/04 13:35:59;;;;;;;51.87;27.30;;;;;;;;;;4997066;28;20799;-51
2021/11/04 13:38:27;;;;;;;59.60;29.20;;;;;;;;;;5003152;28;20407;-52
2021/11/04 13:40:55;;;;;;;63.90;30.90;;;;;;;;;;5001577;28;20503;-51
2021/11/04 13:43:34;;;;;;;59.23;28.87;;;;;;;;;;5003589;28;20911;-51
2021/11/04 13:46:06;;;;;;;49.63;27.30;;;;;;;;;;5012695;28;20485;-51
2021/11/04 13:48:33;;;;;;;57.23;27.97;;;;;;;;;;5012481;28;20406;-50
2021/11/04 13:50:59;;;;;;;53.50;29.50;;;;;;;;;;5012652;28;20442;-51
2021/11/04 13:53:26;;;;;;;60.20;28.80;;;;;;;;;;5003931;28;20408;-51
2021/11/04 13:55:54;;;;;;;60.60;30.23;;;;;;;;;;5012086;28;20958;-51
2021/11/04 13:58:21;;;;;;;60.90;31.03;;;;;;;;;;5012026;28;20431;-51
2021/11/04 14:00:47;;;;;;;65.60;32.10;;;;;;;;;;5012319;28;20461;-51
2021/11/04 14:03:14;;;;;;;64.17;30.10;;;;;;;;;;5012296;28;20411;-51
2021/11/04 14:05:53;;;;;;;58.97;30.17;;;;;;;;;;5012070;28;20678;-51
2021/11/04 14:08:19;;;;;;;66.17;31.93;;;;;;;;;;5012092;28;20391;-50
2021/11/04 14:10:45;;;;;;;58.57;29.50;;;;;;;;;;5012270;28;20434;-51
2021/11/04 14:13:11;;;;;;;68.10;31.40;;;;;;;;;;5012169;28;20443;-51
2021/11/04 14:15:38;;;;;;;63.27;31.60;;;;;;;;;;5012068;28;20457;-51
2021/11/04 14:18:05;;;;;;;60.47;31.47;;;;;;;;;;5011727;28;20769;-51
2021/11/04 14:20:32;;;;;;;57.83;31.23;;;;;;;;;;5012113;28;20894;-51
2021/11/04 14:22:58;;;;;;;54.87;30.57;;;;;;;;;;5012193;28;20410;-51